Time;durP1;ratioP1;P1;durP2;ratioP2;P2;SDS_P1;SDS_P2;PMS_P1;PMS_P2;Temp;Humidity;BMP_temperature;BMP_pressure;BME280_temperature;BME280_humidity;BME280_pressure;Samples;Min_cycle;Max_cycle;Signal;HPM_P1;HPM_P2
2024/04/23 00:00:47;;;;;;;0.52;0.32;;;;;;;;;;5408028;26;20008;-49
2024/04/23 00:03:13;;;;;;;0.40;0.38;;;;;;;;;;5406761;26;20438;-50
2024/04/23 00:05:39;;;;;;;0.40;0.30;;;;;;;;;;5408969;26;20053;-54
2024/04/23 00:08:04;;;;;;;0.57;0.47;;;;;;;;;;5402661;26;20080;-53
2024/04/23 00:10:31;;;;;;;0.60;0.50;;;;;;;;;;5381802;26;20088;-49
2024/04/23 00:12:56;;;;;;;0.47;0.40;;;;;;;;;;5408366;26;20018;-49
2024/04/23 00:15:22;;;;;;;0.40;0.40;;;;;;;;;;5380805;26;20008;-55
2024/04/23 00:17:48;;;;;;;0.88;0.50;;;;;;;;;;5378524;26;20004;-49
2024/04/23 00:20:13;;;;;;;1.23;0.43;;;;;;;;;;5344182;26;20008;-52
2024/04/23 00:22:39;;;;;;;1.20;0.40;;;;;;;;;;5406364;26;20074;-50
2024/04/23 00:25:05;;;;;;;0.40;0.38;;;;;;;;;;5411467;26;20004;-49
2024/04/23 00:27:31;;;;;;;0.55;0.40;;;;;;;;;;5403973;26;20015;-48
2024/04/23 00:29:56;;;;;;;0.43;0.40;;;;;;;;;;5376593;26;20008;-50
2024/04/23 00:32:22;;;;;;;0.95;0.50;;;;;;;;;;5376395;26;20041;-49
2024/04/23 00:34:48;;;;;;;0.30;0.30;;;;;;;;;;5344792;26;20009;-50
2024/04/23 00:37:14;;;;;;;0.57;0.40;;;;;;;;;;5376153;26;20004;-50
2024/04/23 00:39:39;;;;;;;0.60;0.30;;;;;;;;;;5376578;26;20008;-50
2024/04/23 00:42:05;;;;;;;0.63;0.30;;;;;;;;;;5376090;26;20014;-50
2024/04/23 00:44:31;;;;;;;0.55;0.50;;;;;;;;;;5394743;26;20003;-50
2024/04/23 00:46:57;;;;;;;2.53;0.40;;;;;;;;;;5411630;26;20026;-52
2024/04/23 00:49:23;;;;;;;0.50;0.50;;;;;;;;;;5409497;26;20003;-50
2024/04/23 00:51:49;;;;;;;0.32;0.32;;;;;;;;;;5375789;26;20018;-53
2024/04/23 00:54:20;;;;;;;0.70;0.50;;;;;;;;;;5373558;26;20008;-50
2024/04/23 00:56:45;;;;;;;0.30;0.30;;;;;;;;;;5373535;26;20085;-53
2024/04/23 00:59:13;;;;;;;1.90;0.50;;;;;;;;;;5373273;26;20005;-53
2024/04/23 01:01:39;;;;;;;0.50;0.40;;;;;;;;;;5375835;26;20345;-49
2024/04/23 01:04:05;;;;;;;1.23;0.43;;;;;;;;;;5373133;26;20004;-53
2024/04/23 01:06:35;;;;;;;0.65;0.50;;;;;;;;;;5375421;26;20044;-52
2024/04/23 01:09:02;;;;;;;5.05;0.52;;;;;;;;;;5375190;26;20004;-51
2024/04/23 01:11:29;;;;;;;0.50;0.50;;;;;;;;;;5375622;26;20032;-50
2024/04/23 01:13:55;;;;;;;0.95;0.50;;;;;;;;;;5375333;26;20450;-48
2024/04/23 01:16:41;;;;;;;0.50;0.32;;;;;;;;;;5351331;26;20018;-53
2024/04/23 01:19:10;;;;;;;0.52;0.40;;;;;;;;;;5400888;26;20047;-53
2024/04/23 01:21:51;;;;;;;0.40;0.30;;;;;;;;;;5390596;26;20367;-54
2024/04/23 01:24:20;;;;;;;0.40;0.40;;;;;;;;;;5344633;26;20008;-50
2024/04/23 01:26:46;;;;;;;0.73;0.43;;;;;;;;;;5344208;26;20387;-50
2024/04/23 01:29:12;;;;;;;0.82;0.40;;;;;;;;;;5375083;26;20031;-49
2024/04/23 01:31:38;;;;;;;2.80;0.60;;;;;;;;;;5375356;26;20024;-51
2024/04/23 01:34:05;;;;;;;0.88;0.47;;;;;;;;;;5374403;26;20773;-48
2024/04/23 01:36:30;;;;;;;0.40;0.30;;;;;;;;;;5373034;26;20019;-51
2024/04/23 01:38:56;;;;;;;1.55;0.50;;;;;;;;;;5372852;26;20590;-52
2024/04/23 01:41:22;;;;;;;1.02;0.32;;;;;;;;;;5344106;26;20481;-47
2024/04/23 01:43:48;;;;;;;0.82;0.40;;;;;;;;;;5342909;26;20015;-49
2024/04/23 01:46:14;;;;;;;0.70;0.50;;;;;;;;;;5374425;26;20460;-50
2024/04/23 01:48:40;;;;;;;0.40;0.40;;;;;;;;;;5374634;26;20015;-51
2024/04/23 01:51:06;;;;;;;0.60;0.40;;;;;;;;;;5374923;26;20004;-49
2024/04/23 01:53:32;;;;;;;0.38;0.35;;;;;;;;;;5375369;26;20587;-52
2024/04/23 01:55:57;;;;;;;0.40;0.40;;;;;;;;;;5374778;26;20031;-53
2024/04/23 01:58:23;;;;;;;2.53;0.40;;;;;;;;;;5375103;26;20080;-48
2024/04/23 02:00:50;;;;;;;0.50;0.50;;;;;;;;;;5373146;26;20008;-52
2024/04/23 02:03:16;;;;;;;2.72;0.43;;;;;;;;;;5375248;26;20015;-49
2024/04/23 02:05:45;;;;;;;1.40;0.40;;;;;;;;;;5344338;26;20015;-55
2024/04/23 02:08:11;;;;;;;0.50;0.30;;;;;;;;;;5374143;26;20015;-52
2024/04/23 02:10:37;;;;;;;0.43;0.40;;;;;;;;;;5374072;26;20008;-54
2024/04/23 02:13:07;;;;;;;0.20;0.20;;;;;;;;;;5374544;26;20000;-53
2024/04/23 02:15:35;;;;;;;0.63;0.35;;;;;;;;;;5372466;26;20014;-48
2024/04/23 02:18:02;;;;;;;0.70;0.50;;;;;;;;;;5354537;26;20003;-49
2024/04/23 02:20:27;;;;;;;0.75;0.50;;;;;;;;;;5405574;26;20015;-52
2024/04/23 02:22:53;;;;;;;0.38;0.28;;;;;;;;;;5374771;26;20041;-50
2024/04/23 02:25:20;;;;;;;0.40;0.40;;;;;;;;;;5372763;26;20016;-48
2024/04/23 02:27:47;;;;;;;0.30;0.30;;;;;;;;;;5372418;26;20016;-51
2024/04/23 02:30:12;;;;;;;1.13;0.20;;;;;;;;;;5373894;26;20015;-48
2024/04/23 02:32:38;;;;;;;0.20;0.20;;;;;;;;;;5371637;26;20004;-53
2024/04/23 02:35:04;;;;;;;0.20;0.20;;;;;;;;;;5374269;26;20008;-51
2024/04/23 02:37:33;;;;;;;0.13;0.13;;;;;;;;;;5372050;26;20000;-51
2024/04/23 02:39:58;;;;;;;0.20;0.20;;;;;;;;;;5373869;26;20051;-50
2024/04/23 02:42:24;;;;;;;0.20;0.20;;;;;;;;;;5374105;26;20451;-51
2024/04/23 02:44:50;;;;;;;1.05;0.30;;;;;;;;;;5343290;26;19996;-50
2024/04/23 02:47:17;;;;;;;1.65;0.35;;;;;;;;;;5403594;26;20421;-50
2024/04/23 02:49:42;;;;;;;0.20;0.20;;;;;;;;;;5408969;26;20004;-53
2024/04/23 02:52:09;;;;;;;2.55;0.35;;;;;;;;;;5407084;26;20049;-50
2024/04/23 02:54:34;;;;;;;0.30;0.30;;;;;;;;;;5393894;26;20018;-50
2024/04/23 02:57:00;;;;;;;1.17;0.40;;;;;;;;;;5373580;26;20073;-53
2024/04/23 02:59:26;;;;;;;1.17;0.30;;;;;;;;;;5373819;26;20012;-49
2024/04/23 03:02:04;;;;;;;0.52;0.30;;;;;;;;;;5372313;26;20015;-50
2024/04/23 03:04:30;;;;;;;0.50;0.30;;;;;;;;;;5374296;26;20000;-52
2024/04/23 03:06:59;;;;;;;0.47;0.20;;;;;;;;;;5372038;26;20069;-51
2024/04/23 03:09:27;;;;;;;0.30;0.20;;;;;;;;;;5373775;26;20015;-51
2024/04/23 03:11:53;;;;;;;0.32;0.30;;;;;;;;;;5373636;26;20037;-49
2024/04/23 03:14:19;;;;;;;0.30;0.20;;;;;;;;;;5373457;26;20055;-54
2024/04/23 03:16:45;;;;;;;0.20;0.20;;;;;;;;;;5373501;26;20004;-52
2024/04/23 03:19:11;;;;;;;0.75;0.32;;;;;;;;;;5400204;26;20010;-50
2024/04/23 03:21:47;;;;;;;0.52;0.30;;;;;;;;;;5401524;26;20012;-51
2024/04/23 03:24:12;;;;;;;0.22;0.22;;;;;;;;;;5371457;26;20004;-54
2024/04/23 03:26:38;;;;;;;0.40;0.25;;;;;;;;;;5373894;26;20078;-52
2024/04/23 03:29:04;;;;;;;9.07;0.63;;;;;;;;;;5373198;26;20016;-54
2024/04/23 03:31:30;;;;;;;1.45;0.20;;;;;;;;;;5340980;26;20004;-53
2024/04/23 03:33:55;;;;;;;0.35;0.35;;;;;;;;;;5368795;26;20009;-50
2024/04/23 03:36:21;;;;;;;0.30;0.20;;;;;;;;;;5369098;26;20068;-51
2024/04/23 03:38:47;;;;;;;3.67;0.50;;;;;;;;;;5370748;26;20020;-52
2024/04/23 03:41:13;;;;;;;0.65;0.35;;;;;;;;;;5371226;26;20000;-49
2024/04/23 03:43:38;;;;;;;0.57;0.32;;;;;;;;;;5373063;26;20356;-49
2024/04/23 03:46:04;;;;;;;1.65;0.30;;;;;;;;;;5373013;26;20475;-51
2024/04/23 03:48:30;;;;;;;0.60;0.30;;;;;;;;;;5371957;26;20019;-51
2024/04/23 03:50:55;;;;;;;0.30;0.30;;;;;;;;;;5374040;26;20462;-48
2024/04/23 03:53:21;;;;;;;0.47;0.35;;;;;;;;;;5375736;26;20407;-51
2024/04/23 03:55:46;;;;;;;0.57;0.30;;;;;;;;;;5374932;26;20452;-49
2024/04/23 03:58:12;;;;;;;0.22;0.22;;;;;;;;;;5376487;26;20029;-53
2024/04/23 04:00:38;;;;;;;0.40;0.20;;;;;;;;;;5376490;26;20016;-50
2024/04/23 04:06:04;;;;;;;0.30;0.30;;;;;;;;;;5376227;26;20008;-50
2024/04/23 04:08:30;;;;;;;2.47;0.40;;;;;;;;;;5393760;26;20023;-49
2024/04/23 04:10:56;;;;;;;0.43;0.28;;;;;;;;;;5374693;26;20008;-51
2024/04/23 04:13:22;;;;;;;0.60;0.30;;;;;;;;;;5380174;26;20022;-54
2024/04/23 04:15:49;;;;;;;1.00;0.30;;;;;;;;;;5410008;26;20018;-53
2024/04/23 04:18:15;;;;;;;4.78;1.48;;;;;;;;;;5398741;26;20004;-48
2024/04/23 04:20:41;;;;;;;0.35;0.30;;;;;;;;;;5403944;26;20459;-54
2024/04/23 04:23:07;;;;;;;1.25;0.55;;;;;;;;;;5382400;26;20008;-52
2024/04/23 04:25:32;;;;;;;0.77;0.30;;;;;;;;;;5400711;26;20015;-50
2024/04/23 04:27:58;;;;;;;0.60;0.30;;;;;;;;;;5394678;26;20004;-50
2024/04/23 04:30:24;;;;;;;2.58;1.15;;;;;;;;;;5410382;26;20004;-54
2024/04/23 04:32:50;;;;;;;0.55;0.30;;;;;;;;;;5409025;26;20350;-53
2024/04/23 04:35:16;;;;;;;0.80;0.60;;;;;;;;;;5410861;26;20395;-50
2024/04/23 04:37:42;;;;;;;1.55;0.70;;;;;;;;;;5401585;26;20000;-53
2024/04/23 04:40:07;;;;;;;1.17;0.40;;;;;;;;;;5378777;26;20019;-52
2024/04/23 04:42:33;;;;;;;0.32;0.30;;;;;;;;;;5409082;26;20018;-54
2024/04/23 04:44:59;;;;;;;0.45;0.32;;;;;;;;;;5409283;26;20023;-52
2024/04/23 04:47:25;;;;;;;2.22;0.30;;;;;;;;;;5410950;26;20010;-52
2024/04/23 04:49:50;;;;;;;0.25;0.20;;;;;;;;;;5376184;26;20442;-61
2024/04/23 04:52:19;;;;;;;1.23;0.47;;;;;;;;;;5375491;26;20019;-50
2024/04/23 04:54:44;;;;;;;0.55;0.30;;;;;;;;;;5373456;26;20005;-51
2024/04/23 04:57:10;;;;;;;0.30;0.30;;;;;;;;;;5373267;26;20079;-54
2024/04/23 04:59:36;;;;;;;1.75;0.30;;;;;;;;;;5372469;26;20014;-50
2024/04/23 05:02:01;;;;;;;0.80;0.40;;;;;;;;;;5391634;26;20022;-53
2024/04/23 05:04:27;;;;;;;0.57;0.40;;;;;;;;;;5410943;26;20041;-52
2024/04/23 05:06:53;;;;;;;0.40;0.30;;;;;;;;;;5402621;26;20052;-49
2024/04/23 05:09:18;;;;;;;2.28;0.30;;;;;;;;;;5384172;26;20015;-50
2024/04/23 05:11:44;;;;;;;2.83;0.50;;;;;;;;;;5373556;26;20086;-49
2024/04/23 05:14:10;;;;;;;1.02;0.30;;;;;;;;;;5343877;26;20011;-56
2024/04/23 05:16:36;;;;;;;1.58;0.30;;;;;;;;;;5374608;26;20008;-51
2024/04/23 05:19:01;;;;;;;0.90;0.38;;;;;;;;;;5379176;26;20567;-54
2024/04/23 05:21:28;;;;;;;1.60;0.30;;;;;;;;;;5391948;26;20339;-50
2024/04/23 05:23:53;;;;;;;1.88;0.60;;;;;;;;;;5410439;26;20345;-53
2024/04/23 05:26:19;;;;;;;0.40;0.40;;;;;;;;;;5409947;26;20548;-48
2024/04/23 05:28:45;;;;;;;0.73;0.40;;;;;;;;;;5396962;26;20012;-55
2024/04/23 05:33:55;;;;;;;0.63;0.40;;;;;;;;;;5374235;26;20018;-54
2024/04/23 05:36:25;;;;;;;0.45;0.40;;;;;;;;;;5372679;26;20006;-49
2024/04/23 05:38:51;;;;;;;5.57;0.60;;;;;;;;;;5373372;26;20004;-55
2024/04/23 05:41:17;;;;;;;1.13;0.95;;;;;;;;;;5315067;26;20943;-49
2024/04/23 05:43:43;;;;;;;1.75;0.38;;;;;;;;;;5343768;26;20011;-52
2024/04/23 05:46:09;;;;;;;0.35;0.30;;;;;;;;;;5373223;26;20048;-55
2024/04/23 05:48:53;;;;;;;4.22;0.70;;;;;;;;;;5373110;26;20073;-55
2024/04/23 05:51:57;;;;;;;1.65;0.40;;;;;;;;;;5372919;26;20015;-53
2024/04/23 05:54:59;;;;;;;0.43;0.35;;;;;;;;;;5374658;26;20022;-53
2024/04/23 05:57:47;;;;;;;0.73;0.50;;;;;;;;;;5374770;26;20012;-55
2024/04/23 06:00:13;;;;;;;10.38;0.60;;;;;;;;;;5373481;26;20494;-56
2024/04/23 06:02:39;;;;;;;1.88;0.77;;;;;;;;;;5374500;26;20051;-54
2024/04/23 06:05:05;;;;;;;0.60;0.40;;;;;;;;;;5372862;26;20004;-54
2024/04/23 06:07:31;;;;;;;2.22;0.50;;;;;;;;;;5372534;26;20000;-55
2024/04/23 06:09:56;;;;;;;1.45;0.52;;;;;;;;;;5374551;26;20008;-52
2024/04/23 06:12:22;;;;;;;1.50;0.50;;;;;;;;;;5373795;26;20487;-50
2024/04/23 06:14:48;;;;;;;0.40;0.40;;;;;;;;;;5374118;26;20004;-54
2024/04/23 06:17:16;;;;;;;1.13;0.40;;;;;;;;;;5372034;26;20023;-54
2024/04/23 06:19:45;;;;;;;1.48;0.52;;;;;;;;;;5371964;26;20081;-55
2024/04/23 06:22:11;;;;;;;1.17;0.73;;;;;;;;;;5371995;26;20007;-50
2024/04/23 06:24:37;;;;;;;1.45;0.60;;;;;;;;;;5407807;26;20008;-52
2024/04/23 06:27:02;;;;;;;0.93;0.60;;;;;;;;;;5409768;26;20347;-48
2024/04/23 06:29:28;;;;;;;0.40;0.40;;;;;;;;;;5407893;26;20510;-50
2024/04/23 06:31:54;;;;;;;0.70;0.40;;;;;;;;;;5380687;26;20074;-50
2024/04/23 06:34:20;;;;;;;1.50;0.60;;;;;;;;;;5372750;26;20016;-52
2024/04/23 06:36:46;;;;;;;1.08;0.50;;;;;;;;;;5374362;26;20716;-52
2024/04/23 06:39:11;;;;;;;0.88;0.60;;;;;;;;;;5417474;26;20007;-49
2024/04/23 06:41:37;;;;;;;0.50;0.38;;;;;;;;;;5388828;26;20015;-53
2024/04/23 06:44:05;;;;;;;3.67;0.45;;;;;;;;;;5409408;26;20010;-52
2024/04/23 06:46:31;;;;;;;1.05;0.50;;;;;;;;;;5409635;26;20282;-50
2024/04/23 06:48:56;;;;;;;1.10;0.50;;;;;;;;;;5406691;26;20007;-50
2024/04/23 06:51:22;;;;;;;1.88;0.50;;;;;;;;;;5401944;26;20010;-50
2024/04/23 06:53:48;;;;;;;1.70;0.60;;;;;;;;;;5372746;26;20016;-51
2024/04/23 06:56:14;;;;;;;0.65;0.50;;;;;;;;;;5372499;26;20076;-53
2024/04/23 06:58:40;;;;;;;0.88;0.55;;;;;;;;;;5373671;26;20031;-51
2024/04/23 07:01:05;;;;;;;1.95;0.70;;;;;;;;;;5373543;26;20019;-53
2024/04/23 07:03:31;;;;;;;1.95;0.55;;;;;;;;;;5372316;26;19997;-49
2024/04/23 07:05:57;;;;;;;4.97;0.70;;;;;;;;;;5376427;26;20012;-55
2024/04/23 07:08:23;;;;;;;1.58;0.50;;;;;;;;;;5406711;26;20011;-52
2024/04/23 07:10:54;;;;;;;0.50;0.40;;;;;;;;;;5401966;26;20004;-53
2024/04/23 07:13:19;;;;;;;0.85;0.32;;;;;;;;;;5382103;26;20487;-52
2024/04/23 07:15:45;;;;;;;2.83;0.60;;;;;;;;;;5373319;26;20094;-54
2024/04/23 07:18:11;;;;;;;1.90;0.43;;;;;;;;;;5371792;26;20506;-52
2024/04/23 07:20:38;;;;;;;0.98;0.60;;;;;;;;;;5379509;26;20003;-51
2024/04/23 07:23:04;;;;;;;0.82;0.50;;;;;;;;;;5401672;26;20036;-51
2024/04/23 07:25:30;;;;;;;2.13;0.50;;;;;;;;;;5406184;26;20076;-54
2024/04/23 07:27:56;;;;;;;0.60;0.50;;;;;;;;;;5376498;26;20049;-50
2024/04/23 07:30:26;;;;;;;2.72;0.73;;;;;;;;;;5394553;26;20376;-51
2024/04/23 07:32:55;;;;;;;4.85;1.17;;;;;;;;;;5313625;26;20005;-54
2024/04/23 07:35:21;;;;;;;3.75;0.65;;;;;;;;;;5371401;26;20070;-49
2024/04/23 07:37:47;;;;;;;2.13;0.70;;;;;;;;;;5342205;26;20012;-53
2024/04/23 07:40:12;;;;;;;3.45;0.70;;;;;;;;;;5370947;26;20001;-52
2024/04/23 07:42:38;;;;;;;2.10;1.02;;;;;;;;;;5371242;26;20468;-52
2024/04/23 07:45:04;;;;;;;3.83;0.70;;;;;;;;;;5370519;26;20008;-52
2024/04/23 07:47:33;;;;;;;3.55;1.10;;;;;;;;;;5370113;26;20218;-54
2024/04/23 07:49:59;;;;;;;0.80;0.70;;;;;;;;;;5341133;26;20384;-53
2024/04/23 07:52:26;;;;;;;0.93;0.68;;;;;;;;;;5370169;26;20000;-52
2024/04/23 07:54:52;;;;;;;1.83;0.70;;;;;;;;;;5341460;26;20113;-51
2024/04/23 07:57:18;;;;;;;4.53;0.80;;;;;;;;;;5369799;26;20020;-48
2024/04/23 07:59:44;;;;;;;4.10;1.00;;;;;;;;;;5370728;26;20016;-50
2024/04/23 08:02:13;;;;;;;2.25;0.88;;;;;;;;;;5373853;26;20015;-53
2024/04/23 08:04:39;;;;;;;1.63;0.80;;;;;;;;;;5371250;26;20019;-52
2024/04/23 08:07:04;;;;;;;1.30;0.77;;;;;;;;;;5385854;26;20023;-52
2024/04/23 08:09:33;;;;;;;1.73;0.82;;;;;;;;;;5402929;26;20003;-53
2024/04/23 08:11:58;;;;;;;2.70;0.70;;;;;;;;;;5372108;26;20000;-53
2024/04/23 08:14:24;;;;;;;3.00;1.10;;;;;;;;;;5370640;26;20022;-53
2024/04/23 08:16:53;;;;;;;2.95;0.88;;;;;;;;;;5404599;26;20008;-54
2024/04/23 08:19:19;;;;;;;0.82;0.70;;;;;;;;;;5406505;26;20108;-49
2024/04/23 08:21:45;;;;;;;2.97;1.20;;;;;;;;;;5381908;26;20008;-54
2024/04/23 08:24:11;;;;;;;1.65;0.77;;;;;;;;;;5370550;26;20004;-51
2024/04/23 08:26:37;;;;;;;1.48;1.10;;;;;;;;;;5340560;26;20545;-54
2024/04/23 08:29:02;;;;;;;1.13;0.82;;;;;;;;;;5339973;26;20008;-53
2024/04/23 08:31:28;;;;;;;1.50;0.80;;;;;;;;;;5371976;26;20008;-51
2024/04/23 08:33:55;;;;;;;1.83;0.88;;;;;;;;;;5372667;26;20000;-56
2024/04/23 08:36:21;;;;;;;3.60;1.45;;;;;;;;;;5373275;26;20011;-50
2024/04/23 08:38:46;;;;;;;1.27;0.90;;;;;;;;;;5344403;26;20442;-50
2024/04/23 08:41:16;;;;;;;2.95;0.80;;;;;;;;;;5375577;26;20012;-55
2024/04/23 08:43:49;;;;;;;3.33;1.00;;;;;;;;;;5376073;26;20484;-54
2024/04/23 08:46:15;;;;;;;17.25;1.75;;;;;;;;;;5375586;26;20008;-52
2024/04/23 08:48:45;;;;;;;1.40;0.95;;;;;;;;;;5373888;26;20004;-52
2024/04/23 08:51:11;;;;;;;6.32;1.15;;;;;;;;;;5373691;26;20037;-52
2024/04/23 08:53:37;;;;;;;2.65;0.82;;;;;;;;;;5374346;26;20100;-56
2024/04/23 08:56:05;;;;;;;4.22;0.80;;;;;;;;;;5373549;26;20032;-52
2024/04/23 08:58:31;;;;;;;1.10;0.77;;;;;;;;;;5373144;26;20472;-52
2024/04/23 09:00:58;;;;;;;3.53;0.82;;;;;;;;;;5374757;26;20022;-49
2024/04/23 09:03:30;;;;;;;2.08;0.70;;;;;;;;;;5344020;26;20032;-50
2024/04/23 09:06:00;;;;;;;1.50;1.10;;;;;;;;;;5373460;26;20008;-52
2024/04/23 09:08:26;;;;;;;1.33;0.80;;;;;;;;;;5315506;26;20004;-51
2024/04/23 09:10:53;;;;;;;4.63;1.60;;;;;;;;;;5373187;26;20015;-54
2024/04/23 09:13:19;;;;;;;1.08;0.90;;;;;;;;;;5371892;26;20085;-52
2024/04/23 09:15:45;;;;;;;2.28;1.00;;;;;;;;;;5389931;26;20000;-50
2024/04/23 09:18:11;;;;;;;1.25;1.02;;;;;;;;;;5407781;26;20018;-53
2024/04/23 09:20:37;;;;;;;1.45;0.95;;;;;;;;;;5372835;26;20184;-54
2024/04/23 09:23:03;;;;;;;2.03;1.23;;;;;;;;;;5374860;26;20503;-51
2024/04/23 09:25:34;;;;;;;1.30;0.85;;;;;;;;;;5373583;26;20016;-51
2024/04/23 09:28:00;;;;;;;1.10;1.00;;;;;;;;;;5372729;26;20012;-52
2024/04/23 09:30:27;;;;;;;2.03;0.80;;;;;;;;;;5343345;26;20482;-52
2024/04/23 09:33:03;;;;;;;2.25;1.05;;;;;;;;;;5384730;26;20060;-52
2024/04/23 09:35:29;;;;;;;1.65;0.80;;;;;;;;;;5385138;26;20083;-48
2024/04/23 09:37:55;;;;;;;1.48;1.10;;;;;;;;;;5390633;26;20023;-51
2024/04/23 09:40:21;;;;;;;1.00;0.90;;;;;;;;;;5371490;26;20012;-52
2024/04/23 09:42:52;;;;;;;1.77;0.90;;;;;;;;;;5373916;26;20482;-54
2024/04/23 09:45:27;;;;;;;3.45;1.02;;;;;;;;;;5371844;26;20081;-53
2024/04/23 09:47:53;;;;;;;1.98;0.70;;;;;;;;;;5372003;26;20012;-52
2024/04/23 09:50:28;;;;;;;1.15;0.98;;;;;;;;;;5380538;26;20142;-53
2024/04/23 09:53:04;;;;;;;2.45;1.10;;;;;;;;;;5394217;26;20367;-51
2024/04/23 09:55:30;;;;;;;2.53;1.20;;;;;;;;;;5409334;26;20003;-50
2024/04/23 09:57:56;;;;;;;1.73;1.40;;;;;;;;;;5371765;26;20632;-51
2024/04/23 10:00:22;;;;;;;2.17;1.05;;;;;;;;;;5401592;26;20004;-47
2024/04/23 10:02:57;;;;;;;2.20;1.13;;;;;;;;;;5383477;26;20352;-54
2024/04/23 10:05:27;;;;;;;2.97;1.08;;;;;;;;;;5383058;26;20007;-54
2024/04/23 10:08:03;;;;;;;3.25;1.73;;;;;;;;;;5392710;26;20010;-52
2024/04/23 10:10:41;;;;;;;3.33;1.17;;;;;;;;;;5405987;26;20012;-55
2024/04/23 10:13:14;;;;;;;3.95;1.30;;;;;;;;;;5377392;26;19999;-52
2024/04/23 10:15:43;;;;;;;2.83;1.00;;;;;;;;;;5407912;26;20549;-52
2024/04/23 10:18:14;;;;;;;4.32;1.02;;;;;;;;;;5384784;26;20008;-55
2024/04/23 10:20:43;;;;;;;2.55;1.10;;;;;;;;;;5378907;26;20035;-51
2024/04/23 10:23:09;;;;;;;1.08;0.98;;;;;;;;;;5409281;26;20026;-51
2024/04/23 10:25:35;;;;;;;1.33;0.90;;;;;;;;;;5407297;26;20035;-51
2024/04/23 10:28:01;;;;;;;3.03;1.20;;;;;;;;;;5387916;26;20005;-50
2024/04/23 10:30:29;;;;;;;1.33;1.23;;;;;;;;;;5373234;26;20053;-55
2024/04/23 10:32:56;;;;;;;2.87;1.37;;;;;;;;;;5373623;26;20367;-54
2024/04/23 10:35:23;;;;;;;2.42;1.30;;;;;;;;;;5314006;26;20352;-50
2024/04/23 10:37:50;;;;;;;3.05;1.30;;;;;;;;;;5372174;26;20004;-47
2024/04/23 10:40:17;;;;;;;1.35;1.25;;;;;;;;;;5371623;26;20001;-52
2024/04/23 10:42:45;;;;;;;2.53;1.10;;;;;;;;;;5342963;26;20027;-54
2024/04/23 10:45:11;;;;;;;3.97;1.30;;;;;;;;;;5374194;26;20000;-51
2024/04/23 10:47:46;;;;;;;3.20;1.10;;;;;;;;;;5373686;26;20130;-52
2024/04/23 10:50:13;;;;;;;2.50;1.05;;;;;;;;;;5343173;26;20549;-54
2024/04/23 10:52:39;;;;;;;1.77;1.30;;;;;;;;;;5373667;26;20012;-53
2024/04/23 10:55:06;;;;;;;2.03;1.05;;;;;;;;;;5374226;26;20008;-53
2024/04/23 10:57:31;;;;;;;2.67;1.25;;;;;;;;;;5370044;26;20019;-57
2024/04/23 10:59:57;;;;;;;1.00;0.90;;;;;;;;;;5373682;26;20008;-52
2024/04/23 11:02:26;;;;;;;3.83;1.33;;;;;;;;;;5373180;26;20032;-49
2024/04/23 11:04:56;;;;;;;1.38;1.23;;;;;;;;;;5344025;26;20088;-50
2024/04/23 11:07:30;;;;;;;1.50;1.10;;;;;;;;;;5373211;26;20475;-51
2024/04/23 11:10:00;;;;;;;2.38;1.25;;;;;;;;;;5343753;26;20004;-55
2024/04/23 11:12:29;;;;;;;2.90;1.25;;;;;;;;;;5371647;26;20015;-50
2024/04/23 11:14:58;;;;;;;3.20;1.30;;;;;;;;;;5313670;26;20004;-51
2024/04/23 11:17:24;;;;;;;1.40;1.20;;;;;;;;;;5313298;26;20004;-53
2024/04/23 11:19:52;;;;;;;2.65;0.95;;;;;;;;;;5342311;26;20090;-55
2024/04/23 11:22:19;;;;;;;;;;;;;;;;;;5373581;26;20081;-53
2024/04/23 11:24:47;;;;;;;;;;;;;;;;;;5378600;26;20071;-55
2024/04/23 11:27:13;;;;;;;2.75;1.30;;;;;;;;;;5379152;26;19925;-52
2024/04/23 11:29:40;;;;;;;1.38;1.00;;;;;;;;;;5373601;26;20348;-52
2024/04/23 11:32:06;;;;;;;2.00;1.10;;;;;;;;;;5372985;26;20019;-51
2024/04/23 11:34:33;;;;;;;1.83;1.17;;;;;;;;;;5372817;26;20048;-52
2024/04/23 11:36:59;;;;;;;1.92;1.20;;;;;;;;;;5384339;26;20009;-53
2024/04/23 11:39:25;;;;;;;3.58;1.08;;;;;;;;;;5370371;26;20085;-55
2024/04/23 11:41:54;;;;;;;3.85;1.20;;;;;;;;;;5370352;26;20488;-53
2024/04/23 11:44:23;;;;;;;2.10;1.05;;;;;;;;;;5372244;26;20005;-54
2024/04/23 11:46:49;;;;;;;3.35;1.15;;;;;;;;;;5372590;26;20019;-56
2024/04/23 11:49:18;;;;;;;2.92;1.17;;;;;;;;;;5372179;26;20016;-56
2024/04/23 11:51:44;;;;;;;5.32;1.38;;;;;;;;;;5370307;26;20008;-56
2024/04/23 11:54:10;;;;;;;4.85;1.17;;;;;;;;;;5372287;26;20005;-52
2024/04/23 11:56:36;;;;;;;5.03;1.45;;;;;;;;;;5341599;26;20019;-51
2024/04/23 11:59:02;;;;;;;2.58;1.00;;;;;;;;;;5406990;26;20765;-53
2024/04/23 12:01:28;;;;;;;4.45;0.93;;;;;;;;;;5406328;26;20020;-55
2024/04/23 12:03:57;;;;;;;6.95;1.40;;;;;;;;;;5406441;26;20482;-54
2024/04/23 12:06:23;;;;;;;;;;;;;;;;;;5407043;26;20521;-51
2024/04/23 12:08:49;;;;;;;2.35;1.15;;;;;;;;;;5377725;26;19933;-50
2024/04/23 12:11:15;;;;;;;1.83;1.00;;;;;;;;;;5394513;26;20004;-53
2024/04/23 12:13:46;;;;;;;3.00;1.15;;;;;;;;;;5373937;26;20011;-52
2024/04/23 12:16:12;;;;;;;2.05;0.98;;;;;;;;;;5373996;26;20208;-57
2024/04/23 12:18:41;;;;;;;2.22;1.20;;;;;;;;;;5376348;26;20023;-57
2024/04/23 12:21:07;;;;;;;3.50;1.00;;;;;;;;;;5391315;26;20012;-53
2024/04/23 12:23:33;;;;;;;3.92;1.25;;;;;;;;;;5375051;26;20977;-54
2024/04/23 12:25:59;;;;;;;1.30;1.02;;;;;;;;;;5344011;26;20008;-54
2024/04/23 12:28:25;;;;;;;2.38;1.27;;;;;;;;;;5375318;26;20058;-55
2024/04/23 12:30:51;;;;;;;3.83;1.50;;;;;;;;;;5375228;26;20000;-54
2024/04/23 12:33:17;;;;;;;1.67;1.00;;;;;;;;;;5373146;26;20004;-53
2024/04/23 12:35:43;;;;;;;1.83;1.00;;;;;;;;;;5374914;26;20373;-55
2024/04/23 12:38:12;;;;;;;3.28;1.00;;;;;;;;;;5344338;26;20054;-54
2024/04/23 12:40:41;;;;;;;1.35;0.80;;;;;;;;;;5375225;26;20004;-52
2024/04/23 12:43:07;;;;;;;;;;;;;;;;;;5375830;26;20001;-51
2024/04/23 12:45:33;;;;;;;4.97;1.08;;;;;;;;;;5344574;26;19932;-51
2024/04/23 12:47:59;;;;;;;1.50;1.13;;;;;;;;;;5375531;26;20367;-52
2024/04/23 12:50:25;;;;;;;3.97;1.30;;;;;;;;;;5374183;26;20004;-55
2024/04/23 12:52:51;;;;;;;2.70;1.00;;;;;;;;;;5376233;26;20023;-54
2024/04/23 12:55:17;;;;;;;2.35;1.35;;;;;;;;;;5358636;26;20015;-55
2024/04/23 12:57:43;;;;;;;5.50;1.17;;;;;;;;;;5375214;26;20000;-51
2024/04/23 13:00:08;;;;;;;4.00;1.48;;;;;;;;;;5374709;26;20023;-53
2024/04/23 13:02:34;;;;;;;3.53;1.23;;;;;;;;;;5344326;26;20019;-56
2024/04/23 13:05:00;;;;;;;9.52;1.40;;;;;;;;;;5315482;26;20255;-55
2024/04/23 13:07:28;;;;;;;3.17;1.40;;;;;;;;;;5375301;26;20004;-58
2024/04/23 13:09:53;;;;;;;4.05;1.30;;;;;;;;;;5382342;26;20003;-55
2024/04/23 13:12:19;;;;;;;3.85;1.15;;;;;;;;;;5410398;26;20011;-53
2024/04/23 13:14:45;;;;;;;3.67;1.27;;;;;;;;;;5410302;26;20034;-55
2024/04/23 13:17:11;;;;;;;1.88;1.05;;;;;;;;;;5410373;26;20025;-55
2024/04/23 13:19:37;;;;;;;6.35;1.30;;;;;;;;;;5408173;26;20004;-54
2024/04/23 13:22:07;;;;;;;3.17;1.10;;;;;;;;;;5380261;26;20004;-51
2024/04/23 13:24:33;;;;;;;1.67;1.20;;;;;;;;;;5372673;26;20004;-54
2024/04/23 13:26:59;;;;;;;3.80;1.00;;;;;;;;;;5374945;26;20490;-54
2024/04/23 13:29:27;;;;;;;4.05;1.33;;;;;;;;;;5375402;26;20004;-56
2024/04/23 13:31:54;;;;;;;3.60;1.13;;;;;;;;;;5375294;26;20077;-54
2024/04/23 13:34:21;;;;;;;4.28;1.50;;;;;;;;;;5344143;26;20469;-52
2024/04/23 13:36:47;;;;;;;1.73;0.90;;;;;;;;;;5375046;26;20015;-54
2024/04/23 13:39:12;;;;;;;1.80;1.00;;;;;;;;;;5374772;26;20000;-56
2024/04/23 13:41:38;;;;;;;1.77;1.23;;;;;;;;;;5372261;26;20004;-52
2024/04/23 13:44:04;;;;;;;2.25;1.20;;;;;;;;;;5372537;26;20073;-53
2024/04/23 13:46:30;;;;;;;3.22;1.20;;;;;;;;;;5374481;26;20004;-55
2024/04/23 13:48:55;;;;;;;3.65;0.98;;;;;;;;;;5372926;26;20823;-53
2024/04/23 13:51:21;;;;;;;2.05;1.20;;;;;;;;;;5372127;26;20387;-56
2024/04/23 13:53:47;;;;;;;2.40;1.13;;;;;;;;;;5374504;26;20370;-56
2024/04/23 13:56:13;;;;;;;6.22;1.38;;;;;;;;;;5374714;26;20015;-49
2024/04/23 13:58:39;;;;;;;2.72;1.33;;;;;;;;;;5374826;26;20480;-54
2024/04/23 14:01:06;;;;;;;1.67;1.20;;;;;;;;;;5374487;26;20008;-55
2024/04/23 14:03:33;;;;;;;2.13;1.30;;;;;;;;;;5374358;26;20023;-51
2024/04/23 14:06:01;;;;;;;2.80;1.40;;;;;;;;;;5374439;26;20018;-52
2024/04/23 14:08:30;;;;;;;5.15;1.55;;;;;;;;;;5343953;26;20004;-50
2024/04/23 14:10:56;;;;;;;;;;;;;;;;;;5346298;26;20008;-50
2024/04/23 14:13:22;;;;;;;1.60;1.25;;;;;;;;;;5396506;26;20306;-52
2024/04/23 14:15:47;;;;;;;1.85;1.00;;;;;;;;;;5407694;26;20014;-57
2024/04/23 14:18:13;;;;;;;3.97;1.27;;;;;;;;;;5408062;26;20498;-58
2024/04/23 14:20:39;;;;;;;4.13;1.55;;;;;;;;;;5403245;26;20015;-51
2024/04/23 14:23:04;;;;;;;3.30;1.40;;;;;;;;;;5372794;26;20427;-55
2024/04/23 14:25:30;;;;;;;2.40;1.38;;;;;;;;;;5374271;26;20004;-57
2024/04/23 14:27:56;;;;;;;3.50;1.42;;;;;;;;;;5343507;26;20014;-51
2024/04/23 14:30:22;;;;;;;2.72;1.50;;;;;;;;;;5374336;26;20007;-50
2024/04/23 14:32:48;;;;;;;4.13;1.40;;;;;;;;;;5372833;26;20012;-51
2024/04/23 14:35:13;;;;;;;3.33;1.50;;;;;;;;;;5374139;26;20004;-48
2024/04/23 14:37:39;;;;;;;3.22;1.30;;;;;;;;;;5374053;26;20077;-54
2024/04/23 14:40:06;;;;;;;1.58;0.98;;;;;;;;;;5390073;26;20018;-52
2024/04/23 14:42:32;;;;;;;2.35;1.10;;;;;;;;;;5374316;26;20035;-53
2024/04/23 14:44:57;;;;;;;3.05;1.20;;;;;;;;;;5374150;26;20019;-53
2024/04/23 14:47:23;;;;;;;2.30;1.27;;;;;;;;;;5374134;26;20004;-57
2024/04/23 14:49:49;;;;;;;2.42;1.33;;;;;;;;;;5374387;26;20012;-48